createdAt,value
2018-12-23T00:00:09.163Z,10.30
2018-12-23T00:01:09.106Z,10.34
2018-12-23T00:02:09.047Z,10.39
2018-12-23T00:03:08.989Z,10.32
2018-12-23T00:04:08.930Z,10.33
2018-12-23T00:05:11.590Z,10.42
2018-12-23T00:06:08.815Z,10.32
2018-12-23T00:07:08.756Z,10.34
2018-12-23T00:08:08.698Z,10.43
2018-12-23T00:09:08.639Z,10.34
2018-12-23T00:10:08.608Z,10.34
2018-12-23T00:11:08.530Z,10.36
2018-12-23T00:12:08.464Z,10.37
2018-12-23T00:13:08.407Z,10.36
2018-12-23T00:14:08.347Z,10.32
2018-12-23T00:15:08.288Z,10.34
2018-12-23T00:16:08.230Z,10.32
2018-12-23T00:17:08.173Z,10.33
2018-12-23T00:18:08.114Z,10.39
2018-12-23T00:19:08.060Z,10.33
2018-12-23T00:20:08.000Z,10.30
2018-12-23T00:21:07.941Z,10.42
2018-12-23T00:22:07.880Z,10.34
2018-12-23T00:23:07.825Z,10.42
2018-12-23T00:24:07.764Z,10.34
2018-12-23T00:25:07.705Z,10.34
2018-12-23T00:26:07.670Z,10.40
2018-12-23T00:27:07.590Z,10.32
2018-12-23T00:28:07.531Z,10.33
2018-12-23T00:29:07.473Z,10.39
2018-12-23T00:30:07.413Z,10.40
2018-12-23T00:31:07.355Z,10.32
2018-12-23T00:32:07.296Z,10.36
2018-12-23T00:33:07.239Z,10.37
2018-12-23T00:34:07.180Z,10.28
2018-12-23T00:35:07.120Z,10.32
2018-12-23T00:36:07.062Z,10.36
2018-12-23T00:37:07.004Z,10.40
2018-12-23T00:38:06.946Z,10.39
2018-12-23T00:39:06.892Z,10.34
2018-12-23T00:40:06.829Z,10.36
2018-12-23T00:41:06.770Z,10.37
2018-12-23T00:42:06.728Z,10.37
2018-12-23T00:43:06.653Z,10.32
2018-12-23T00:44:06.600Z,10.42
2018-12-23T00:45:06.540Z,10.40
2018-12-23T00:46:06.523Z,10.39
2018-12-23T00:47:06.421Z,10.37
2018-12-23T00:48:06.361Z,10.32
2018-12-23T00:49:06.303Z,10.40
2018-12-23T00:50:06.244Z,10.34
2018-12-23T00:51:06.193Z,10.33
2018-12-23T00:52:06.127Z,10.32
2018-12-23T00:53:06.070Z,10.36
2018-12-23T00:54:06.013Z,10.32
2018-12-23T00:55:05.955Z,10.36
2018-12-23T00:56:05.896Z,10.39
2018-12-23T00:57:05.836Z,10.34
2018-12-23T00:58:05.779Z,10.32
2018-12-23T00:59:05.718Z,10.33
2018-12-23T01:00:05.661Z,10.42
2018-12-23T01:01:05.603Z,10.33
2018-12-23T01:02:05.544Z,10.28
2018-12-23T01:03:05.487Z,10.36
2018-12-23T01:04:05.429Z,10.30
2018-12-23T01:05:05.373Z,10.37
2018-12-23T01:06:05.321Z,10.33
2018-12-23T01:07:05.251Z,10.33
2018-12-23T01:08:05.195Z,10.34
2018-12-23T01:09:05.135Z,10.33
2018-12-23T01:10:05.079Z,10.36
2018-12-23T01:11:05.021Z,10.36
2018-12-23T01:12:04.960Z,10.28
2018-12-23T01:13:04.901Z,10.37
2018-12-23T01:14:04.843Z,10.33
2018-12-23T01:15:04.786Z,10.36
2018-12-23T01:16:04.728Z,10.34
2018-12-23T01:17:04.668Z,10.33
2018-12-23T01:18:04.609Z,10.33
2018-12-23T01:19:04.550Z,10.36
2018-12-23T01:20:04.492Z,10.32
2018-12-23T01:21:04.434Z,10.34
2018-12-23T01:22:04.376Z,10.36
2018-12-23T01:23:04.319Z,10.30
2018-12-23T01:24:04.262Z,10.33
2018-12-23T01:25:04.200Z,10.39
2018-12-23T01:26:04.144Z,10.33
2018-12-23T01:27:04.181Z,10.32
2018-12-23T01:28:04.070Z,10.33
2018-12-23T01:29:03.967Z,10.32
2018-12-23T01:30:03.909Z,10.36
2018-12-23T01:31:03.851Z,10.30
2018-12-23T01:32:03.909Z,10.40
2018-12-23T01:33:03.743Z,10.42
2018-12-23T01:34:05.366Z,10.37
2018-12-23T01:35:03.618Z,10.33
2018-12-23T01:36:03.558Z,10.39
2018-12-23T01:37:03.501Z,10.37
2018-12-23T01:38:03.443Z,10.36
2018-12-23T01:39:03.386Z,10.39
2018-12-23T01:40:03.324Z,10.32
2018-12-23T01:41:04.433Z,10.30
2018-12-23T01:42:03.207Z,10.28
2018-12-23T01:43:03.149Z,10.28
2018-12-23T01:44:03.093Z,10.28
2018-12-23T01:45:03.032Z,10.32
2018-12-23T01:46:02.975Z,10.37
2018-12-23T01:47:02.914Z,10.32
2018-12-23T01:48:02.857Z,10.26
2018-12-23T01:49:02.799Z,10.33
2018-12-23T01:50:02.741Z,10.30
2018-12-23T01:51:02.682Z,10.25
2018-12-23T01:52:02.622Z,10.30
2018-12-23T01:53:02.569Z,10.32
2018-12-23T01:54:02.507Z,10.32
2018-12-23T01:55:02.447Z,10.21
2018-12-23T01:56:02.389Z,10.33
2018-12-23T01:57:02.339Z,10.34
2018-12-23T01:58:02.273Z,10.30
2018-12-23T01:59:02.214Z,10.34
2018-12-23T02:00:02.155Z,10.24
2018-12-23T02:01:02.098Z,10.30
2018-12-23T02:02:02.039Z,10.30
2018-12-23T02:03:01.981Z,10.42
2018-12-23T02:04:01.922Z,10.25
2018-12-23T02:05:01.864Z,10.28
2018-12-23T02:06:01.806Z,10.32
2018-12-23T02:07:01.749Z,10.32
2018-12-23T02:08:01.687Z,10.33
2018-12-23T02:09:01.633Z,10.33
2018-12-23T02:10:01.572Z,10.34
2018-12-23T02:11:01.512Z,10.26
2018-12-23T02:12:01.454Z,10.33
2018-12-23T02:13:01.397Z,10.34
2018-12-23T02:14:01.337Z,10.28
2018-12-23T02:15:01.278Z,10.30
2018-12-23T02:16:01.219Z,10.30
2018-12-23T02:17:01.166Z,10.34
2018-12-23T02:18:01.105Z,10.28
2018-12-23T02:19:01.043Z,10.32
2018-12-23T02:20:00.988Z,10.33
2018-12-23T02:21:00.927Z,10.26
2018-12-23T02:22:00.876Z,10.30
2018-12-23T02:23:00.810Z,10.32
2018-12-23T02:24:00.751Z,10.34
2018-12-23T02:25:00.694Z,10.30
2018-12-23T02:26:00.635Z,10.28
2018-12-23T02:27:00.576Z,10.30
2018-12-23T02:28:00.517Z,10.28
2018-12-23T02:29:00.460Z,10.28
2018-12-23T02:30:00.404Z,10.30
2018-12-23T02:31:00.342Z,10.24
2018-12-23T02:32:00.284Z,10.30
2018-12-23T02:33:00.225Z,10.30
2018-12-23T02:34:00.167Z,10.32
2018-12-23T02:35:00.339Z,10.30
2018-12-23T02:36:00.051Z,10.30
2018-12-23T02:36:59.993Z,10.32
2018-12-23T02:37:59.934Z,10.25
2018-12-23T02:38:59.879Z,10.30
2018-12-23T02:39:59.819Z,10.30
2018-12-23T02:40:59.760Z,10.33
2018-12-23T02:41:59.701Z,10.25
2018-12-23T02:42:59.645Z,10.25
2018-12-23T02:43:59.582Z,10.26
2018-12-23T02:44:59.524Z,10.33
2018-12-23T02:45:59.469Z,10.28
2018-12-23T02:46:59.411Z,10.33
2018-12-23T02:47:59.349Z,10.26
2018-12-23T02:48:59.293Z,10.26
2018-12-23T02:49:59.232Z,10.25
2018-12-23T02:50:59.173Z,10.25
2018-12-23T02:51:59.115Z,10.30
2018-12-23T02:52:59.063Z,10.32
2018-12-23T02:53:59.000Z,10.26
2018-12-23T02:54:58.939Z,10.28
2018-12-23T02:55:58.881Z,10.32
2018-12-23T02:56:58.823Z,10.25
2018-12-23T02:57:58.763Z,10.28
2018-12-23T02:58:58.705Z,10.28
2018-12-23T02:59:58.647Z,10.30
2018-12-23T03:00:58.588Z,10.25
2018-12-23T03:01:58.530Z,10.24
2018-12-23T03:02:58.473Z,10.21
2018-12-23T03:03:58.415Z,10.21
2018-12-23T03:04:58.354Z,10.19
2018-12-23T03:06:05.781Z,10.25
2018-12-23T03:06:58.236Z,10.17
2018-12-23T03:07:58.179Z,10.19
2018-12-23T03:08:58.149Z,10.33
2018-12-23T03:09:58.066Z,10.25
2018-12-23T03:10:58.005Z,10.17
2018-12-23T03:11:57.945Z,10.22
2018-12-23T03:12:57.888Z,10.17
2018-12-23T03:13:57.846Z,10.25
2018-12-23T03:14:57.770Z,10.18
2018-12-23T03:15:57.732Z,10.21
2018-12-23T03:16:57.654Z,10.25
2018-12-23T03:17:57.594Z,10.25
2018-12-23T03:18:57.535Z,10.26
2018-12-23T03:19:57.476Z,10.28
2018-12-23T03:20:57.417Z,10.21
2018-12-23T03:21:57.369Z,10.22
2018-12-23T03:22:57.301Z,10.18
2018-12-23T03:23:57.247Z,10.24
2018-12-23T03:24:57.184Z,10.25
2018-12-23T03:25:57.125Z,10.25
2018-12-23T03:26:57.068Z,10.30
2018-12-23T03:27:57.007Z,10.26
2018-12-23T03:28:56.950Z,10.30
2018-12-23T03:29:56.891Z,10.25
2018-12-23T03:30:56.835Z,10.24
2018-12-23T03:31:56.775Z,10.26
2018-12-23T03:32:56.719Z,10.24
2018-12-23T03:33:56.658Z,10.21
2018-12-23T03:34:56.598Z,10.25
2018-12-23T03:35:56.539Z,10.22
2018-12-23T03:36:56.481Z,10.22
2018-12-23T03:37:56.424Z,10.21
2018-12-23T03:38:56.364Z,10.24
2018-12-23T03:39:56.306Z,10.22
2018-12-23T03:40:56.248Z,10.22
2018-12-23T03:41:56.189Z,10.19
2018-12-23T03:42:56.132Z,10.22
2018-12-23T03:43:56.072Z,10.22
2018-12-23T03:44:56.014Z,10.25
2018-12-23T03:45:55.955Z,10.18
2018-12-23T03:46:55.895Z,10.24
2018-12-23T03:47:55.838Z,10.19
2018-12-23T03:48:55.785Z,10.24
2018-12-23T03:49:55.721Z,10.24
2018-12-23T03:50:55.665Z,10.19
2018-12-23T03:51:55.605Z,10.21
2018-12-23T03:52:55.545Z,10.22
2018-12-23T03:53:55.494Z,10.21
2018-12-23T03:54:55.428Z,10.19
2018-12-23T03:55:55.373Z,10.21
2018-12-23T03:56:55.310Z,10.17
2018-12-23T03:57:55.252Z,10.19
2018-12-23T03:58:55.202Z,10.19
2018-12-23T03:59:55.137Z,10.19
2018-12-23T04:00:55.076Z,10.19
2018-12-23T04:01:55.018Z,10.24
2018-12-23T04:02:54.965Z,10.18
2018-12-23T04:03:54.906Z,10.19
2018-12-23T04:04:54.842Z,10.18
2018-12-23T04:05:54.784Z,10.15
2018-12-23T04:06:54.726Z,10.19
2018-12-23T04:07:54.666Z,10.07
2018-12-23T04:08:54.609Z,10.14
2018-12-23T04:09:54.552Z,10.18
2018-12-23T04:10:54.491Z,10.21
2018-12-23T04:11:54.433Z,10.24
2018-12-23T04:12:54.374Z,10.18
2018-12-23T04:13:54.319Z,10.17
2018-12-23T04:14:54.257Z,10.19
2018-12-23T04:15:54.198Z,10.12
2018-12-23T04:16:54.140Z,10.19
2018-12-23T04:17:54.084Z,10.19
2018-12-23T04:18:54.023Z,10.21
2018-12-23T04:19:53.964Z,10.10
2018-12-23T04:20:53.956Z,10.17
2018-12-23T04:21:53.853Z,10.14
2018-12-23T04:22:53.791Z,10.15
2018-12-23T04:23:53.732Z,10.17
2018-12-23T04:24:53.675Z,10.17
2018-12-23T04:25:53.614Z,10.18
2018-12-23T04:26:53.554Z,10.10
2018-12-23T04:27:53.496Z,10.19
2018-12-23T04:28:53.437Z,10.12
2018-12-23T04:29:53.379Z,10.21
2018-12-23T04:30:53.320Z,10.21
2018-12-23T04:31:53.263Z,10.24
2018-12-23T04:32:53.205Z,10.12
2018-12-23T04:33:53.146Z,10.21
2018-12-23T04:34:53.090Z,10.06
2018-12-23T04:35:53.027Z,10.18
2018-12-23T04:36:52.970Z,10.22
2018-12-23T04:37:52.912Z,10.22
2018-12-23T04:38:52.853Z,10.22
2018-12-23T04:39:52.793Z,10.14
2018-12-23T04:40:52.736Z,10.17
2018-12-23T04:41:52.677Z,10.22
2018-12-23T04:42:52.618Z,10.15
2018-12-23T04:43:52.561Z,10.10
2018-12-23T04:44:52.501Z,10.19
2018-12-23T04:45:52.445Z,10.12
2018-12-23T04:46:52.385Z,10.22
2018-12-23T04:47:52.326Z,10.17
2018-12-23T04:48:52.267Z,10.17
2018-12-23T04:49:52.313Z,10.12
2018-12-23T04:50:52.150Z,10.12
2018-12-23T04:51:52.092Z,10.12
2018-12-23T04:52:52.033Z,10.21
2018-12-23T04:53:51.975Z,10.19
2018-12-23T04:54:51.915Z,10.17
2018-12-23T04:55:51.861Z,10.14
2018-12-23T04:56:51.799Z,10.12
2018-12-23T04:57:51.742Z,10.15
2018-12-23T04:58:51.685Z,10.15
2018-12-23T04:59:51.624Z,10.18
2018-12-23T05:00:51.564Z,10.09
2018-12-23T05:01:51.507Z,10.12
2018-12-23T05:02:51.450Z,10.14
2018-12-23T05:03:51.388Z,10.14
2018-12-23T05:04:51.330Z,10.25
2018-12-23T05:05:51.273Z,10.07
2018-12-23T05:06:51.213Z,10.09
2018-12-23T05:07:51.154Z,10.15
2018-12-23T05:08:51.096Z,10.09
2018-12-23T05:09:51.037Z,10.15
2018-12-23T05:10:50.984Z,10.14
2018-12-23T05:11:50.919Z,10.19
2018-12-23T05:12:50.862Z,10.21
2018-12-23T05:13:50.805Z,10.14
2018-12-23T05:14:50.753Z,10.06
2018-12-23T05:15:50.687Z,10.12
2018-12-23T05:16:50.629Z,10.10
2018-12-23T05:17:50.570Z,10.18
2018-12-23T05:18:50.512Z,10.09
2018-12-23T05:19:50.451Z,10.12
2018-12-23T05:20:50.393Z,10.07
2018-12-23T05:21:50.335Z,10.18
2018-12-23T05:22:50.275Z,10.15
2018-12-23T05:23:50.217Z,10.09
2018-12-23T05:24:50.163Z,10.12
2018-12-23T05:25:50.100Z,10.10
2018-12-23T05:26:50.154Z,10.06
2018-12-23T05:27:49.991Z,10.17
2018-12-23T05:28:49.925Z,10.10
2018-12-23T05:29:49.867Z,10.14
2018-12-23T05:30:49.807Z,10.07
2018-12-23T05:31:49.750Z,10.09
2018-12-23T05:32:49.692Z,10.10
2018-12-23T05:33:49.633Z,10.12
2018-12-23T05:34:49.572Z,10.10
2018-12-23T05:35:49.519Z,10.10
2018-12-23T05:36:52.619Z,10.18
2018-12-23T05:37:49.401Z,10.10
2018-12-23T05:38:49.338Z,10.15
2018-12-23T05:39:49.282Z,10.17
2018-12-23T05:40:51.354Z,10.18
2018-12-23T05:41:49.169Z,10.14
2018-12-23T05:42:49.106Z,10.09
2018-12-23T05:43:49.045Z,10.14
2018-12-23T05:44:49.024Z,10.15
2018-12-23T05:45:48.929Z,10.18
2018-12-23T05:46:48.869Z,10.12
2018-12-23T05:47:48.812Z,10.12
2018-12-23T05:48:48.752Z,10.12
2018-12-23T05:49:48.693Z,10.17
2018-12-23T05:50:48.636Z,10.09
2018-12-23T05:51:48.576Z,10.19
2018-12-23T05:52:48.521Z,10.09
2018-12-23T05:53:48.462Z,10.19
2018-12-23T05:54:48.403Z,10.17
2018-12-23T05:55:48.343Z,10.17
2018-12-23T05:56:48.282Z,10.17
2018-12-23T05:57:48.224Z,10.12
2018-12-23T05:58:48.166Z,10.07
2018-12-23T05:59:48.107Z,10.10
2018-12-23T06:00:48.051Z,10.14
2018-12-23T06:01:47.990Z,10.10
2018-12-23T06:02:47.934Z,10.09
2018-12-23T06:03:47.873Z,10.19
2018-12-23T06:04:47.814Z,10.14
2018-12-23T06:05:47.756Z,10.17
2018-12-23T06:06:47.697Z,10.12
2018-12-23T06:07:47.638Z,10.14
2018-12-23T06:08:47.582Z,10.14
2018-12-23T06:09:47.523Z,10.12
2018-12-23T06:10:47.465Z,10.09
2018-12-23T06:11:47.405Z,10.10
2018-12-23T06:12:47.347Z,10.17
2018-12-23T06:13:47.288Z,10.09
2018-12-23T06:14:47.228Z,10.12
2018-12-23T06:15:47.172Z,10.10
2018-12-23T06:16:47.111Z,10.12
2018-12-23T06:17:47.055Z,10.14
2018-12-23T06:18:46.995Z,10.12
2018-12-23T06:19:46.944Z,10.15
2018-12-23T06:20:46.878Z,10.12
2018-12-23T06:21:46.822Z,10.15
2018-12-23T06:22:46.759Z,10.09
2018-12-23T06:23:46.701Z,10.17
2018-12-23T06:24:46.642Z,10.14
2018-12-23T06:25:46.584Z,10.07
2018-12-23T06:26:46.524Z,10.15
2018-12-23T06:27:46.466Z,10.15
2018-12-23T06:28:46.414Z,10.17
2018-12-23T06:29:46.349Z,10.17
2018-12-23T06:30:46.293Z,10.10
2018-12-23T06:31:46.231Z,10.03
2018-12-23T06:32:46.173Z,10.04
2018-12-23T06:33:46.114Z,10.12
2018-12-23T06:34:46.059Z,10.15
2018-12-23T06:35:46.111Z,10.12
2018-12-23T06:36:45.941Z,10.14
2018-12-23T06:37:45.881Z,10.12
2018-12-23T06:38:45.821Z,10.09
2018-12-23T06:39:45.763Z,10.09
2018-12-23T06:40:45.705Z,10.10
2018-12-23T06:41:45.646Z,10.06
2018-12-23T06:42:45.588Z,10.04
2018-12-23T06:43:45.528Z,10.12
2018-12-23T06:44:45.471Z,10.09
2018-12-23T06:45:45.411Z,10.17
2018-12-23T06:46:45.351Z,10.06
2018-12-23T06:47:45.293Z,10.03
2018-12-23T06:48:45.236Z,10.12
2018-12-23T06:49:45.185Z,10.03
2018-12-23T06:50:45.119Z,10.10
2018-12-23T06:51:45.058Z,10.18
2018-12-23T06:52:45.001Z,10.14
2018-12-23T06:53:44.943Z,10.06
2018-12-23T06:54:44.883Z,10.09
2018-12-23T06:55:44.825Z,10.17
2018-12-23T06:56:44.767Z,10.04
2018-12-23T06:57:44.708Z,10.10
2018-12-23T06:58:44.649Z,10.14
2018-12-23T06:59:44.589Z,10.10
2018-12-23T07:00:44.531Z,10.12
2018-12-23T07:01:44.474Z,10.04
2018-12-23T07:02:44.415Z,9.99
2018-12-23T07:03:44.355Z,10.04
2018-12-23T07:04:44.297Z,10.12
2018-12-23T07:05:44.242Z,10.12
2018-12-23T07:06:44.179Z,10.17
2018-12-23T07:07:44.125Z,10.07
2018-12-23T07:08:44.065Z,10.15
2018-12-23T07:09:44.005Z,10.10
2018-12-23T07:10:43.945Z,10.06
2018-12-23T07:11:43.886Z,10.09
2018-12-23T07:12:43.828Z,10.09
2018-12-23T07:13:43.770Z,10.06
2018-12-23T07:14:43.714Z,10.06
2018-12-23T07:15:43.656Z,10.04
2018-12-23T07:16:43.593Z,10.14
2018-12-23T07:17:43.535Z,10.07
2018-12-23T07:18:43.479Z,10.12
2018-12-23T07:19:43.417Z,10.01
2018-12-23T07:20:43.359Z,10.00
2018-12-23T07:21:43.302Z,10.06
2018-12-23T07:22:43.267Z,10.17
2018-12-23T07:23:43.183Z,10.12
2018-12-23T07:24:43.125Z,10.12
2018-12-23T07:25:43.067Z,10.03
2018-12-23T07:26:43.714Z,10.06
2018-12-23T07:27:42.954Z,10.04
2018-12-23T07:28:42.895Z,10.10
2018-12-23T07:29:42.871Z,10.10
2018-12-23T07:30:42.773Z,10.04
2018-12-23T07:31:42.713Z,10.00
2018-12-23T07:32:42.655Z,10.07
2018-12-23T07:33:42.597Z,10.01
2018-12-23T07:34:42.540Z,10.07
2018-12-23T07:35:42.479Z,10.12
2018-12-23T07:36:49.567Z,10.00
2018-12-23T07:37:42.366Z,10.01
2018-12-23T07:38:42.304Z,10.12
2018-12-23T07:39:42.246Z,10.07
2018-12-23T07:40:42.186Z,10.09
2018-12-23T07:41:42.127Z,10.07
2018-12-23T07:42:42.070Z,10.15
2018-12-23T07:43:42.009Z,10.12
2018-12-23T07:44:41.952Z,10.06
2018-12-23T07:45:41.893Z,10.01
2018-12-23T07:46:41.834Z,10.17
2018-12-23T07:47:41.775Z,10.14
2018-12-23T07:48:41.716Z,10.15
2018-12-23T07:49:41.659Z,10.00
2018-12-23T07:50:41.600Z,9.97
2018-12-23T07:51:41.546Z,10.01
2018-12-23T07:52:41.485Z,10.03
2018-12-23T07:53:41.424Z,10.12
2018-12-23T07:54:41.368Z,10.01
2018-12-23T07:55:41.305Z,10.12
2018-12-23T07:56:41.248Z,10.00
2018-12-23T07:57:41.188Z,10.06
2018-12-23T07:58:41.130Z,10.00
2018-12-23T07:59:41.071Z,10.06
2018-12-23T08:00:41.015Z,10.01
2018-12-23T08:01:40.956Z,10.06
2018-12-23T08:02:40.895Z,10.12
2018-12-23T08:03:40.836Z,10.04
2018-12-23T08:04:40.778Z,10.00
2018-12-23T08:05:40.719Z,10.00
2018-12-23T08:06:40.659Z,10.04
2018-12-23T08:07:40.601Z,10.04
2018-12-23T08:08:40.545Z,10.03
2018-12-23T08:09:40.484Z,10.03
2018-12-23T08:10:40.429Z,10.12
2018-12-23T08:11:40.369Z,9.96
2018-12-23T08:12:40.308Z,10.15
2018-12-23T08:13:40.251Z,10.06
2018-12-23T08:14:40.192Z,10.01
2018-12-23T08:15:40.131Z,10.01
2018-12-23T08:16:40.074Z,10.01
2018-12-23T08:17:40.015Z,10.01
2018-12-23T08:18:39.957Z,10.06
2018-12-23T08:19:39.897Z,10.07
2018-12-23T08:20:39.840Z,10.06
2018-12-23T08:21:39.783Z,10.00
2018-12-23T08:22:39.725Z,10.07
2018-12-23T08:23:39.664Z,10.01
2018-12-23T08:24:39.604Z,10.04
2018-12-23T08:25:39.548Z,9.99
2018-12-23T08:26:39.486Z,10.01
2018-12-23T08:27:39.428Z,10.15
2018-12-23T08:28:39.369Z,10.06
2018-12-23T08:29:39.319Z,10.01
2018-12-23T08:30:39.251Z,10.06
2018-12-23T08:31:39.193Z,10.04
2018-12-23T08:32:39.136Z,10.10
2018-12-23T08:33:39.077Z,10.12
2018-12-23T08:34:39.018Z,10.04
2018-12-23T08:35:38.962Z,10.01
2018-12-23T08:36:38.901Z,10.12
2018-12-23T08:37:44.619Z,10.01
2018-12-23T08:38:38.783Z,10.10
2018-12-23T08:39:38.723Z,10.03
2018-12-23T08:40:38.665Z,10.17
2018-12-23T08:41:38.609Z,10.00
2018-12-23T08:42:38.548Z,9.97
2018-12-23T08:43:38.489Z,9.97
2018-12-23T08:44:38.432Z,10.00
2018-12-23T08:45:38.374Z,10.04
2018-12-23T08:46:39.299Z,10.06
2018-12-23T08:47:38.255Z,10.14
2018-12-23T08:48:38.196Z,10.06
2018-12-23T08:49:38.147Z,10.15
2018-12-23T08:50:38.177Z,10.06
2018-12-23T08:51:38.022Z,10.01
2018-12-23T08:52:37.963Z,10.00
2018-12-23T08:53:37.905Z,10.07
2018-12-23T08:54:37.845Z,10.07
2018-12-23T08:55:37.785Z,10.06
2018-12-23T08:56:37.726Z,10.15
2018-12-23T08:57:37.669Z,10.07
2018-12-23T08:58:37.609Z,10.04
2018-12-23T08:59:37.550Z,10.07
2018-12-23T09:00:37.494Z,10.14
2018-12-23T09:01:37.433Z,10.09
2018-12-23T09:02:37.376Z,10.15
2018-12-23T09:03:37.318Z,10.07
2018-12-23T09:04:37.260Z,10.04
2018-12-23T09:05:37.204Z,10.12
2018-12-23T09:06:37.140Z,10.07
2018-12-23T09:07:37.081Z,10.10
2018-12-23T09:08:37.027Z,10.03
2018-12-23T09:09:36.964Z,10.07
2018-12-23T09:10:36.906Z,10.01
2018-12-23T09:11:42.760Z,10.09
2018-12-23T09:12:36.788Z,10.14
2018-12-23T09:13:36.732Z,10.04
2018-12-23T09:14:36.670Z,10.14
2018-12-23T09:15:36.614Z,10.14
2018-12-23T09:16:36.553Z,10.14
2018-12-23T09:17:36.495Z,10.12
2018-12-23T09:18:36.435Z,10.07
2018-12-23T09:19:36.377Z,10.17
2018-12-23T09:20:36.319Z,10.07
2018-12-23T09:21:36.263Z,10.10
2018-12-23T09:22:36.201Z,10.09
2018-12-23T09:23:36.149Z,10.15
2018-12-23T09:24:36.084Z,10.12
2018-12-23T09:25:36.026Z,10.01
2018-12-23T09:26:35.966Z,10.10
2018-12-23T09:27:35.908Z,10.07
2018-12-23T09:28:35.849Z,10.12
2018-12-23T09:29:35.792Z,10.09
2018-12-23T09:30:35.731Z,10.10
2018-12-23T09:31:35.673Z,10.12
2018-12-23T09:32:35.615Z,10.04
2018-12-23T09:33:35.560Z,10.09
2018-12-23T09:34:35.497Z,10.09
2018-12-23T09:35:35.438Z,10.10
2018-12-23T09:36:35.380Z,10.10
2018-12-23T09:37:35.321Z,10.14
2018-12-23T09:38:35.262Z,10.14
2018-12-23T09:39:35.203Z,10.10
2018-12-23T09:40:35.145Z,10.12
2018-12-23T09:41:35.086Z,10.12
2018-12-23T09:42:35.028Z,10.07
2018-12-23T09:43:34.970Z,10.07
2018-12-23T09:44:34.911Z,10.06
2018-12-23T09:45:34.852Z,10.07
2018-12-23T09:46:34.792Z,10.12
2018-12-23T09:47:34.734Z,10.10
2018-12-23T09:48:34.758Z,10.10
2018-12-23T09:49:34.620Z,10.10
2018-12-23T09:50:34.563Z,10.14
2018-12-23T09:51:34.500Z,10.15
2018-12-23T09:52:34.441Z,10.19
2018-12-23T09:53:34.387Z,10.19
2018-12-23T09:54:34.323Z,10.09
2018-12-23T09:55:34.265Z,10.10
2018-12-23T09:56:34.211Z,10.15
2018-12-23T09:57:34.149Z,10.10
2018-12-23T09:58:34.088Z,10.19
2018-12-23T09:59:34.030Z,10.09
2018-12-23T10:00:33.972Z,10.18
2018-12-23T10:01:33.914Z,10.12
2018-12-23T10:02:33.859Z,10.19
2018-12-23T10:03:33.795Z,10.09
2018-12-23T10:04:33.737Z,10.19
2018-12-23T10:05:33.681Z,10.06
2018-12-23T10:06:33.621Z,10.09
2018-12-23T10:07:33.564Z,10.07
2018-12-23T10:08:33.506Z,10.12
2018-12-23T10:09:33.446Z,10.12
2018-12-23T10:10:33.385Z,10.14
2018-12-23T10:11:33.329Z,10.17
2018-12-23T10:12:33.267Z,10.15
2018-12-23T10:13:33.213Z,10.12
2018-12-23T10:14:33.151Z,10.15
2018-12-23T10:15:33.093Z,10.19
2018-12-23T10:16:33.033Z,10.18
2018-12-23T10:17:32.978Z,10.19
2018-12-23T10:18:32.916Z,10.17
2018-12-23T10:19:32.858Z,10.18
2018-12-23T10:20:32.800Z,10.19
2018-12-23T10:21:32.745Z,10.19
2018-12-23T10:22:32.681Z,10.19
2018-12-23T10:23:32.622Z,10.19
2018-12-23T10:24:32.566Z,10.21
2018-12-23T10:25:32.507Z,10.19
2018-12-23T10:26:32.446Z,10.19
2018-12-23T10:27:32.393Z,10.19
2018-12-23T10:28:32.330Z,10.21
2018-12-23T10:29:32.274Z,10.22
2018-12-23T10:30:32.212Z,10.18
2018-12-23T10:31:32.164Z,10.22
2018-12-23T10:32:32.098Z,10.24
2018-12-23T10:33:32.039Z,10.21
2018-12-23T10:34:33.150Z,10.22
2018-12-23T10:35:31.921Z,10.19
2018-12-23T10:36:31.862Z,10.15
2018-12-23T10:37:31.806Z,10.22
2018-12-23T10:38:31.742Z,10.24
2018-12-23T10:39:31.686Z,10.24
2018-12-23T10:40:31.630Z,10.22
2018-12-23T10:41:31.569Z,10.25
2018-12-23T10:42:31.509Z,10.25
2018-12-23T10:43:31.455Z,10.17
2018-12-23T10:44:31.393Z,10.22
2018-12-23T10:45:31.334Z,10.28
2018-12-23T10:46:31.276Z,10.24
2018-12-23T10:47:31.217Z,10.25
2018-12-23T10:48:31.157Z,10.30
2018-12-23T10:49:31.101Z,10.33
2018-12-23T10:50:31.042Z,10.18
2018-12-23T10:51:30.986Z,10.25
2018-12-23T10:52:30.926Z,10.28
2018-12-23T10:53:30.868Z,10.24
2018-12-23T10:54:30.806Z,10.25
2018-12-23T10:55:30.748Z,10.18
2018-12-23T10:56:30.689Z,10.24
2018-12-23T10:57:30.629Z,10.18
2018-12-23T10:58:30.581Z,10.19
2018-12-23T10:59:30.512Z,10.19
2018-12-23T11:00:30.466Z,10.24
2018-12-23T11:01:30.396Z,10.22
2018-12-23T11:02:30.337Z,10.26
2018-12-23T11:03:30.279Z,10.21
2018-12-23T11:04:30.222Z,10.22
2018-12-23T11:05:30.162Z,10.32
2018-12-23T11:06:30.104Z,10.24
2018-12-23T11:07:30.043Z,10.21
2018-12-23T11:08:29.987Z,10.25
2018-12-23T11:09:29.928Z,10.30
2018-12-23T11:10:29.869Z,10.34
2018-12-23T11:11:29.811Z,10.34
2018-12-23T11:12:29.751Z,10.32
2018-12-23T11:13:29.696Z,10.32
2018-12-23T11:14:29.634Z,10.30
2018-12-23T11:15:29.577Z,10.26
2018-12-23T11:16:29.518Z,10.30
2018-12-23T11:17:29.458Z,10.32
2018-12-23T11:18:29.398Z,10.30
2018-12-23T11:19:29.343Z,10.34
2018-12-23T11:20:29.293Z,10.30
2018-12-23T11:21:29.230Z,10.26
2018-12-23T11:22:29.225Z,10.30
2018-12-23T11:23:29.107Z,10.32
2018-12-23T11:24:29.048Z,10.30
2018-12-23T11:25:28.989Z,10.24
2018-12-23T11:26:28.931Z,10.30
2018-12-23T11:27:28.871Z,10.32
2018-12-23T11:28:28.814Z,10.34
2018-12-23T11:29:28.757Z,10.26
2018-12-23T11:30:28.695Z,10.24
2018-12-23T11:31:28.640Z,10.28
2018-12-23T11:32:28.579Z,10.33
2018-12-23T11:33:28.585Z,10.30
2018-12-23T11:34:28.462Z,10.34
2018-12-23T11:35:28.402Z,10.34
2018-12-23T11:36:28.345Z,10.33
2018-12-23T11:37:28.291Z,10.32
2018-12-23T11:38:35.437Z,10.26
2018-12-23T11:39:28.168Z,10.30
2018-12-23T11:40:28.110Z,10.30
2018-12-23T11:41:28.053Z,10.33
2018-12-23T11:42:27.994Z,10.26
2018-12-23T11:43:27.936Z,10.26
2018-12-23T11:44:27.875Z,10.26
2018-12-23T11:45:27.818Z,10.32
2018-12-23T11:46:27.758Z,10.32
2018-12-23T11:47:27.700Z,10.26
2018-12-23T11:48:27.644Z,10.39
2018-12-23T11:49:27.583Z,10.37
2018-12-23T11:50:27.523Z,10.26
2018-12-23T11:51:27.465Z,10.30
2018-12-23T11:52:27.409Z,10.28
2018-12-23T11:53:27.349Z,10.28
2018-12-23T11:54:27.292Z,10.28
2018-12-23T11:55:27.234Z,10.32
2018-12-23T11:56:27.279Z,10.39
2018-12-23T11:57:27.114Z,10.32
2018-12-23T11:58:27.057Z,10.30
2018-12-23T11:59:26.998Z,10.33
2018-12-23T12:00:26.939Z,10.32
2018-12-23T12:01:26.883Z,10.42
2018-12-23T12:02:26.821Z,10.42
2018-12-23T12:03:26.764Z,10.33
2018-12-23T12:04:26.704Z,10.30
2018-12-23T12:05:26.647Z,10.37
2018-12-23T12:06:26.587Z,10.30
2018-12-23T12:07:26.528Z,10.36
2018-12-23T12:08:26.471Z,10.34
2018-12-23T12:09:26.413Z,10.40
2018-12-23T12:10:26.353Z,10.42
2018-12-23T12:11:26.296Z,10.33
2018-12-23T12:12:26.235Z,10.39
2018-12-23T12:13:26.177Z,10.32
2018-12-23T12:14:26.118Z,10.34
2018-12-23T12:15:26.064Z,10.32
2018-12-23T12:16:26.003Z,10.43
2018-12-23T12:17:25.946Z,10.33
2018-12-23T12:18:25.891Z,10.30
2018-12-23T12:19:25.829Z,10.39
2018-12-23T12:20:25.767Z,10.33
2018-12-23T12:21:25.710Z,10.36
2018-12-23T12:22:25.649Z,10.42
2018-12-23T12:23:25.594Z,10.32
2018-12-23T12:24:25.550Z,10.39
2018-12-23T12:25:25.480Z,10.36
2018-12-23T12:26:25.417Z,10.40
2018-12-23T12:27:25.362Z,10.42
2018-12-23T12:28:25.301Z,10.39
2018-12-23T12:29:25.243Z,10.28
2018-12-23T12:30:25.188Z,10.34
2018-12-23T12:31:25.123Z,10.33
2018-12-23T12:32:25.070Z,10.30
2018-12-23T12:33:25.006Z,10.40
2018-12-23T12:34:24.958Z,10.36
2018-12-23T12:35:24.889Z,10.39
2018-12-23T12:36:24.831Z,10.32
2018-12-23T12:37:24.773Z,10.43
2018-12-23T12:38:24.716Z,10.37
2018-12-23T12:39:24.657Z,10.33
2018-12-23T12:40:25.197Z,10.39
2018-12-23T12:41:24.541Z,10.33
2018-12-23T12:42:24.484Z,10.34
2018-12-23T12:43:24.428Z,10.30
2018-12-23T12:44:24.363Z,10.39
2018-12-23T12:45:24.304Z,10.32
2018-12-23T12:46:24.610Z,10.30
2018-12-23T12:47:24.188Z,10.36
2018-12-23T12:48:24.130Z,10.43
2018-12-23T12:49:24.107Z,10.39
2018-12-23T12:50:24.014Z,10.40
2018-12-23T12:51:23.953Z,10.32